sensor_id;sensor_type;location;lat;lon;timestamp;pressure;altitude;pressure_sealevel;temperature;humidity
62789;BME280;66401;42.016;21.454;2023-03-04T00:00:31;98333.38;;;8.24;70.37
62789;BME280;66401;42.016;21.454;2023-03-04T00:02:56;98334.63;;;8.28;70.48
62789;BME280;66401;42.016;21.454;2023-03-04T00:05:22;98335.91;;;8.32;71.00
62789;BME280;66401;42.016;21.454;2023-03-04T00:07:48;98329.34;;;8.22;70.28
62789;BME280;66401;42.016;21.454;2023-03-04T00:10:13;98331.03;;;8.29;70.67
62789;BME280;66401;42.016;21.454;2023-03-04T00:12:39;98330.25;;;8.29;70.07
62789;BME280;66401;42.016;21.454;2023-03-04T00:15:05;98326.81;;;8.14;71.29
62789;BME280;66401;42.016;21.454;2023-03-04T00:17:30;98321.50;;;8.07;71.16
62789;BME280;66401;42.016;21.454;2023-03-04T00:19:56;98311.25;;;8.14;70.97
62789;BME280;66401;42.016;21.454;2023-03-04T00:22:22;98318.50;;;8.18;71.36
62789;BME280;66401;42.016;21.454;2023-03-04T00:24:48;98314.47;;;8.16;71.09
62789;BME280;66401;42.016;21.454;2023-03-04T00:27:13;98314.03;;;8.12;70.72
62789;BME280;66401;42.016;21.454;2023-03-04T00:29:39;98316.44;;;8.14;71.02
62789;BME280;66401;42.016;21.454;2023-03-04T00:32:04;98329.03;;;8.02;71.19
62789;BME280;66401;42.016;21.454;2023-03-04T00:34:30;98323.47;;;8.05;71.10
62789;BME280;66401;42.016;21.454;2023-03-04T00:36:56;98309.88;;;8.03;71.10
62789;BME280;66401;42.016;21.454;2023-03-04T00:39:28;98311.50;;;8.04;71.61
62789;BME280;66401;42.016;21.454;2023-03-04T00:41:53;98320.88;;;8.05;71.64
62789;BME280;66401;42.016;21.454;2023-03-04T00:44:19;98308.59;;;7.99;71.26
62789;BME280;66401;42.016;21.454;2023-03-04T00:46:44;98309.63;;;7.90;71.84
62789;BME280;66401;42.016;21.454;2023-03-04T00:49:10;98298.38;;;7.83;71.52
62789;BME280;66401;42.016;21.454;2023-03-04T00:51:36;98308.97;;;7.96;71.16
62789;BME280;66401;42.016;21.454;2023-03-04T00:54:02;98312.72;;;7.93;72.03
62789;BME280;66401;42.016;21.454;2023-03-04T00:56:27;98305.09;;;7.92;71.98
62789;BME280;66401;42.016;21.454;2023-03-04T00:58:53;98304.44;;;7.90;71.57
62789;BME280;66401;42.016;21.454;2023-03-04T01:01:18;98301.94;;;7.82;72.26
62789;BME280;66401;42.016;21.454;2023-03-04T01:03:44;98301.09;;;7.81;71.89
62789;BME280;66401;42.016;21.454;2023-03-04T01:06:09;98300.59;;;7.86;72.04
62789;BME280;66401;42.016;21.454;2023-03-04T01:08:36;98299.16;;;7.83;72.07
62789;BME280;66401;42.016;21.454;2023-03-04T01:11:01;98294.16;;;7.82;72.30
62789;BME280;66401;42.016;21.454;2023-03-04T01:13:27;98285.09;;;7.78;72.50
62789;BME280;66401;42.016;21.454;2023-03-04T01:15:52;98281.06;;;7.75;72.45
62789;BME280;66401;42.016;21.454;2023-03-04T01:18:18;98277.31;;;7.78;72.58
62789;BME280;66401;42.016;21.454;2023-03-04T01:20:44;98265.66;;;7.82;72.83
62789;BME280;66401;42.016;21.454;2023-03-04T01:23:09;98265.28;;;7.85;72.31
62789;BME280;66401;42.016;21.454;2023-03-04T01:25:35;98277.53;;;7.91;72.95
62789;BME280;66401;42.016;21.454;2023-03-04T01:28:00;98277.91;;;7.88;72.47
62789;BME280;66401;42.016;21.454;2023-03-04T01:30:26;98278.88;;;7.87;72.25
62789;BME280;66401;42.016;21.454;2023-03-04T01:32:51;98278.88;;;7.87;72.43
62789;BME280;66401;42.016;21.454;2023-03-04T01:35:17;98272.09;;;7.86;72.76
62789;BME280;66401;42.016;21.454;2023-03-04T01:37:42;98270.84;;;7.82;72.94
62789;BME280;66401;42.016;21.454;2023-03-04T01:40:09;98268.75;;;7.77;73.56
62789;BME280;66401;42.016;21.454;2023-03-04T01:42:35;98263.13;;;7.88;72.98
62789;BME280;66401;42.016;21.454;2023-03-04T01:45:01;98256.22;;;7.81;73.21
62789;BME280;66401;42.016;21.454;2023-03-04T01:47:29;98255.72;;;7.62;73.86
62789;BME280;66401;42.016;21.454;2023-03-04T01:49:56;98265.19;;;7.55;74.11
62789;BME280;66401;42.016;21.454;2023-03-04T01:52:23;98231.75;;;7.37;74.15
62789;BME280;66401;42.016;21.454;2023-03-04T01:54:51;98253.81;;;7.56;74.01
62789;BME280;66401;42.016;21.454;2023-03-04T01:57:18;98260.22;;;7.68;73.61
62789;BME280;66401;42.016;21.454;2023-03-04T01:59:45;98254.00;;;7.78;73.44
62789;BME280;66401;42.016;21.454;2023-03-04T02:02:11;98234.97;;;7.62;72.45
62789;BME280;66401;42.016;21.454;2023-03-04T02:04:38;98257.91;;;7.73;72.89
62789;BME280;66401;42.016;21.454;2023-03-04T02:07:04;98263.91;;;7.74;73.12
62789;BME280;66401;42.016;21.454;2023-03-04T02:09:31;98260.34;;;7.75;72.94
62789;BME280;66401;42.016;21.454;2023-03-04T02:11:57;98260.56;;;7.65;72.82
62789;BME280;66401;42.016;21.454;2023-03-04T02:14:23;98254.22;;;7.68;73.41
62789;BME280;66401;42.016;21.454;2023-03-04T02:16:50;98249.84;;;7.68;72.95
62789;BME280;66401;42.016;21.454;2023-03-04T02:19:29;98253.41;;;7.67;73.14
62789;BME280;66401;42.016;21.454;2023-03-04T02:21:59;98258.25;;;7.70;72.53
62789;BME280;66401;42.016;21.454;2023-03-04T02:24:44;98252.38;;;7.77;72.79
62789;BME280;66401;42.016;21.454;2023-03-04T02:27:11;98254.91;;;7.85;72.54
62789;BME280;66401;42.016;21.454;2023-03-04T02:29:37;98247.88;;;7.93;71.71
62789;BME280;66401;42.016;21.454;2023-03-04T02:32:03;98248.13;;;7.84;72.36
62789;BME280;66401;42.016;21.454;2023-03-04T02:34:31;98236.63;;;7.63;72.92
62789;BME280;66401;42.016;21.454;2023-03-04T02:36:58;98240.16;;;7.62;72.66
62789;BME280;66401;42.016;21.454;2023-03-04T02:41:56;98239.34;;;7.85;71.99
62789;BME280;66401;42.016;21.454;2023-03-04T02:44:27;98238.63;;;7.91;72.39
62789;BME280;66401;42.016;21.454;2023-03-04T02:46:54;98237.50;;;7.93;72.23
62789;BME280;66401;42.016;21.454;2023-03-04T02:49:21;98234.94;;;8.08;72.06
62789;BME280;66401;42.016;21.454;2023-03-04T02:51:50;98233.78;;;8.11;71.43
62789;BME280;66401;42.016;21.454;2023-03-04T02:54:22;98231.91;;;8.19;71.55
62789;BME280;66401;42.016;21.454;2023-03-04T02:56:50;98231.00;;;8.12;71.27
62789;BME280;66401;42.016;21.454;2023-03-04T02:59:16;98229.47;;;8.03;72.09
62789;BME280;66401;42.016;21.454;2023-03-04T03:01:48;98220.53;;;8.06;72.51
62789;BME280;66401;42.016;21.454;2023-03-04T03:04:13;98230.09;;;8.05;72.21
62789;BME280;66401;42.016;21.454;2023-03-04T03:06:39;98231.34;;;8.09;72.84
62789;BME280;66401;42.016;21.454;2023-03-04T03:09:07;98223.66;;;8.01;73.17
62789;BME280;66401;42.016;21.454;2023-03-04T03:11:33;98222.03;;;8.00;73.63
62789;BME280;66401;42.016;21.454;2023-03-04T03:13:59;98234.47;;;8.04;73.44
62789;BME280;66401;42.016;21.454;2023-03-04T03:16:25;98223.44;;;7.88;73.88
62789;BME280;66401;42.016;21.454;2023-03-04T03:18:50;98225.81;;;7.74;74.15
62789;BME280;66401;42.016;21.454;2023-03-04T03:21:16;98216.19;;;7.83;74.12
62789;BME280;66401;42.016;21.454;2023-03-04T03:23:41;98230.78;;;7.99;73.22
62789;BME280;66401;42.016;21.454;2023-03-04T03:26:08;98224.63;;;8.00;73.28
62789;BME280;66401;42.016;21.454;2023-03-04T03:28:33;98222.03;;;8.00;73.39
62789;BME280;66401;42.016;21.454;2023-03-04T03:30:59;98219.41;;;7.85;73.16
62789;BME280;66401;42.016;21.454;2023-03-04T03:33:24;98217.38;;;7.95;73.90
62789;BME280;66401;42.016;21.454;2023-03-04T03:35:50;98221.34;;;8.06;73.19
62789;BME280;66401;42.016;21.454;2023-03-04T03:38:15;98220.63;;;8.12;72.67
62789;BME280;66401;42.016;21.454;2023-03-04T03:40:41;98223.84;;;8.14;72.88
62789;BME280;66401;42.016;21.454;2023-03-04T03:43:07;98212.66;;;8.14;72.70
62789;BME280;66401;42.016;21.454;2023-03-04T03:45:32;98216.00;;;8.22;71.76
62789;BME280;66401;42.016;21.454;2023-03-04T03:47:58;98223.22;;;8.27;71.20
62789;BME280;66401;42.016;21.454;2023-03-04T03:50:23;98215.63;;;8.25;71.69
62789;BME280;66401;42.016;21.454;2023-03-04T03:52:48;98214.28;;;8.29;71.46
62789;BME280;66401;42.016;21.454;2023-03-04T03:55:14;98210.22;;;8.35;71.57
62789;BME280;66401;42.016;21.454;2023-03-04T03:57:40;98206.34;;;8.46;70.94
62789;BME280;66401;42.016;21.454;2023-03-04T04:00:09;98203.50;;;8.41;70.71
62789;BME280;66401;42.016;21.454;2023-03-04T04:02:34;98213.88;;;8.41;70.15
62789;BME280;66401;42.016;21.454;2023-03-04T04:05:00;98222.19;;;8.36;71.34
62789;BME280;66401;42.016;21.454;2023-03-04T04:07:25;98209.84;;;8.38;72.05
62789;BME280;66401;42.016;21.454;2023-03-04T04:09:51;98209.94;;;8.45;72.41
62789;BME280;66401;42.016;21.454;2023-03-04T04:12:18;98208.88;;;8.54;72.99
62789;BME280;66401;42.016;21.454;2023-03-04T04:14:44;98201.69;;;8.56;72.28
62789;BME280;66401;42.016;21.454;2023-03-04T04:17:10;98206.19;;;8.62;72.27
62789;BME280;66401;42.016;21.454;2023-03-04T04:19:36;98206.78;;;8.64;71.84
62789;BME280;66401;42.016;21.454;2023-03-04T04:22:02;98212.97;;;8.63;72.18
62789;BME280;66401;42.016;21.454;2023-03-04T04:24:28;98206.44;;;8.67;72.57
62789;BME280;66401;42.016;21.454;2023-03-04T04:26:54;98178.34;;;8.56;72.25
62789;BME280;66401;42.016;21.454;2023-03-04T04:29:19;98204.72;;;8.74;71.98
62789;BME280;66401;42.016;21.454;2023-03-04T04:31:45;98201.59;;;8.64;71.68
62789;BME280;66401;42.016;21.454;2023-03-04T04:34:11;98201.34;;;8.59;71.32
62789;BME280;66401;42.016;21.454;2023-03-04T04:36:36;98204.56;;;8.61;71.49
62789;BME280;66401;42.016;21.454;2023-03-04T04:39:02;98199.63;;;8.66;71.58
62789;BME280;66401;42.016;21.454;2023-03-04T04:41:36;98203.81;;;8.67;71.94
62789;BME280;66401;42.016;21.454;2023-03-04T04:44:02;98200.19;;;8.62;71.93
62789;BME280;66401;42.016;21.454;2023-03-04T04:46:27;98206.56;;;8.59;72.37
62789;BME280;66401;42.016;21.454;2023-03-04T04:48:54;98208.97;;;8.60;72.24
62789;BME280;66401;42.016;21.454;2023-03-04T04:51:20;98201.69;;;8.56;72.29
62789;BME280;66401;42.016;21.454;2023-03-04T04:53:45;98200.72;;;8.57;72.39
62789;BME280;66401;42.016;21.454;2023-03-04T04:56:14;98202.88;;;8.53;72.00
62789;BME280;66401;42.016;21.454;2023-03-04T04:58:39;98205.28;;;8.55;72.35
62789;BME280;66401;42.016;21.454;2023-03-04T05:01:05;98200.09;;;8.55;72.91
62789;BME280;66401;42.016;21.454;2023-03-04T05:03:33;98206.88;;;8.56;72.81
62789;BME280;66401;42.016;21.454;2023-03-04T05:05:58;98208.16;;;8.60;71.95
62789;BME280;66401;42.016;21.454;2023-03-04T05:08:24;98204.91;;;8.58;72.52
62789;BME280;66401;42.016;21.454;2023-03-04T05:10:49;98200.38;;;8.60;72.16
62789;BME280;66401;42.016;21.454;2023-03-04T05:13:15;98218.69;;;8.73;72.21
62789;BME280;66401;42.016;21.454;2023-03-04T05:15:41;98221.19;;;8.81;72.64
62789;BME280;66401;42.016;21.454;2023-03-04T05:18:06;98219.31;;;8.75;72.18
62789;BME280;66401;42.016;21.454;2023-03-04T05:20:32;98216.28;;;8.72;72.19
62789;BME280;66401;42.016;21.454;2023-03-04T05:22:57;98206.88;;;8.56;73.17
62789;BME280;66401;42.016;21.454;2023-03-04T05:25:23;98216.81;;;8.67;73.01
62789;BME280;66401;42.016;21.454;2023-03-04T05:27:48;98212.34;;;8.61;73.78
62789;BME280;66401;42.016;21.454;2023-03-04T05:30:14;98219.34;;;8.60;73.96
62789;BME280;66401;42.016;21.454;2023-03-04T05:32:39;98216.94;;;8.59;74.75
62789;BME280;66401;42.016;21.454;2023-03-04T05:35:05;98221.84;;;8.69;74.26
62789;BME280;66401;42.016;21.454;2023-03-04T05:37:31;98228.28;;;8.58;73.88
62789;BME280;66401;42.016;21.454;2023-03-04T05:39:56;98228.94;;;8.60;74.03
62789;BME280;66401;42.016;21.454;2023-03-04T05:42:22;98229.53;;;8.62;73.97
62789;BME280;66401;42.016;21.454;2023-03-04T05:44:47;98239.66;;;8.72;74.60
62789;BME280;66401;42.016;21.454;2023-03-04T05:47:13;98240.03;;;8.69;75.80
62789;BME280;66401;42.016;21.454;2023-03-04T05:49:38;98236.25;;;8.71;75.48
62789;BME280;66401;42.016;21.454;2023-03-04T05:52:05;98244.66;;;8.73;75.68
62789;BME280;66401;42.016;21.454;2023-03-04T05:54:30;98237.78;;;8.66;75.82
62789;BME280;66401;42.016;21.454;2023-03-04T05:56:56;98246.28;;;8.45;76.26
62789;BME280;66401;42.016;21.454;2023-03-04T05:59:22;98254.06;;;8.45;76.64
62789;BME280;66401;42.016;21.454;2023-03-04T06:01:48;98250.34;;;8.24;77.68
62789;BME280;66401;42.016;21.454;2023-03-04T06:04:14;98257.72;;;8.36;78.47
62789;BME280;66401;42.016;21.454;2023-03-04T06:06:39;98255.47;;;8.32;77.85
62789;BME280;66401;42.016;21.454;2023-03-04T06:09:05;98264.31;;;8.23;78.63
62789;BME280;66401;42.016;21.454;2023-03-04T06:11:30;98269.38;;;8.17;77.78
62789;BME280;66401;42.016;21.454;2023-03-04T06:13:56;98271.53;;;8.13;78.86
62789;BME280;66401;42.016;21.454;2023-03-04T06:16:21;98281.28;;;8.11;78.95
62789;BME280;66401;42.016;21.454;2023-03-04T06:18:47;98283.53;;;8.14;78.82
62789;BME280;66401;42.016;21.454;2023-03-04T06:21:12;98281.84;;;8.21;78.67
62789;BME280;66401;42.016;21.454;2023-03-04T06:23:38;98279.03;;;8.08;79.07
62789;BME280;66401;42.016;21.454;2023-03-04T06:26:03;98299.50;;;8.03;79.15
62789;BME280;66401;42.016;21.454;2023-03-04T06:28:33;98269.31;;;7.87;79.42
62789;BME280;66401;42.016;21.454;2023-03-04T06:30:59;98295.69;;;7.91;79.92
62789;BME280;66401;42.016;21.454;2023-03-04T06:33:24;98297.03;;;7.87;80.36
62789;BME280;66401;42.016;21.454;2023-03-04T06:35:56;98305.03;;;8.00;79.47
62789;BME280;66401;42.016;21.454;2023-03-04T06:38:23;98300.88;;;7.91;79.45
62789;BME280;66401;42.016;21.454;2023-03-04T06:40:49;98306.41;;;7.88;79.73
62789;BME280;66401;42.016;21.454;2023-03-04T06:43:14;98312.31;;;7.82;79.51
62789;BME280;66401;42.016;21.454;2023-03-04T06:45:40;98319.78;;;7.77;80.59
62789;BME280;66401;42.016;21.454;2023-03-04T06:48:05;98312.31;;;7.82;80.51
62789;BME280;66401;42.016;21.454;2023-03-04T06:50:31;98321.63;;;7.91;80.30
62789;BME280;66401;42.016;21.454;2023-03-04T06:52:56;98328.09;;;7.95;80.06
62789;BME280;66401;42.016;21.454;2023-03-04T06:55:23;98318.97;;;7.99;79.18
62789;BME280;66401;42.016;21.454;2023-03-04T06:57:48;98327.28;;;7.94;79.42
62789;BME280;66401;42.016;21.454;2023-03-04T07:00:14;98331.09;;;8.07;79.28
62789;BME280;66401;42.016;21.454;2023-03-04T07:02:40;98335.56;;;7.90;79.70
62789;BME280;66401;42.016;21.454;2023-03-04T07:05:06;98335.69;;;7.96;79.11
62789;BME280;66401;42.016;21.454;2023-03-04T07:07:33;98337.78;;;8.01;78.88
62789;BME280;66401;42.016;21.454;2023-03-04T07:09:58;98343.88;;;8.08;78.33
62789;BME280;66401;42.016;21.454;2023-03-04T07:12:24;98347.09;;;8.10;78.94
62789;BME280;66401;42.016;21.454;2023-03-04T07:14:50;98346.13;;;8.11;78.08
62789;BME280;66401;42.016;21.454;2023-03-04T07:17:15;98343.19;;;8.14;77.97
62789;BME280;66401;42.016;21.454;2023-03-04T07:19:41;98349.63;;;8.18;78.49
62789;BME280;66401;42.016;21.454;2023-03-04T07:22:06;98353.56;;;8.14;79.03
62789;BME280;66401;42.016;21.454;2023-03-04T07:24:32;98349.38;;;8.13;79.16
62789;BME280;66401;42.016;21.454;2023-03-04T07:26:57;98346.59;;;8.15;77.00
62789;BME280;66401;42.016;21.454;2023-03-04T07:29:23;98353.44;;;8.30;77.53
62789;BME280;66401;42.016;21.454;2023-03-04T07:31:48;98353.84;;;8.19;77.05
62789;BME280;66401;42.016;21.454;2023-03-04T07:34:14;98356.53;;;8.11;78.14
62789;BME280;66401;42.016;21.454;2023-03-04T07:36:40;98359.75;;;8.13;77.89
62789;BME280;66401;42.016;21.454;2023-03-04T07:39:06;98352.16;;;8.26;77.13
62789;BME280;66401;42.016;21.454;2023-03-04T07:41:32;98350.19;;;8.28;77.60
62789;BME280;66401;42.016;21.454;2023-03-04T07:44:01;98353.78;;;8.27;78.26
62789;BME280;66401;42.016;21.454;2023-03-04T07:46:27;98349.00;;;8.16;78.63
62789;BME280;66401;42.016;21.454;2023-03-04T07:48:54;98353.22;;;8.17;78.91
62789;BME280;66401;42.016;21.454;2023-03-04T07:51:22;98356.66;;;8.32;77.87
62789;BME280;66401;42.016;21.454;2023-03-04T07:53:50;98353.63;;;8.52;77.55
62789;BME280;66401;42.016;21.454;2023-03-04T07:56:19;98344.75;;;8.61;77.48
62789;BME280;66401;42.016;21.454;2023-03-04T07:58:44;98351.28;;;8.57;77.24
62789;BME280;66401;42.016;21.454;2023-03-04T08:01:15;98349.50;;;8.57;76.98
62789;BME280;66401;42.016;21.454;2023-03-04T08:03:42;98355.69;;;8.71;76.82
62789;BME280;66401;42.016;21.454;2023-03-04T08:06:09;98357.69;;;8.69;77.31
62789;BME280;66401;42.016;21.454;2023-03-04T08:08:36;98350.75;;;8.76;76.37
62789;BME280;66401;42.016;21.454;2023-03-04T08:11:06;98353.38;;;8.76;76.57
62789;BME280;66401;42.016;21.454;2023-03-04T08:13:32;98344.31;;;8.87;76.18
62789;BME280;66401;42.016;21.454;2023-03-04T08:15:58;98340.22;;;8.93;76.50
62789;BME280;66401;42.016;21.454;2023-03-04T08:18:24;98336.91;;;8.99;77.12
62789;BME280;66401;42.016;21.454;2023-03-04T08:20:49;98336.53;;;9.02;76.97
62789;BME280;66401;42.016;21.454;2023-03-04T08:23:16;98343.25;;;8.96;75.27
62789;BME280;66401;42.016;21.454;2023-03-04T08:25:41;98337.69;;;8.84;75.20
62789;BME280;66401;42.016;21.454;2023-03-04T08:28:08;98337.19;;;8.89;76.03
62789;BME280;66401;42.016;21.454;2023-03-04T08:30:34;98346.03;;;8.95;75.91
62789;BME280;66401;42.016;21.454;2023-03-04T08:33:02;98342.63;;;8.94;75.63
62789;BME280;66401;42.016;21.454;2023-03-04T08:35:28;98338.53;;;9.00;76.70
62789;BME280;66401;42.016;21.454;2023-03-04T08:37:53;98339.94;;;8.87;76.21
62789;BME280;66401;42.016;21.454;2023-03-04T08:40:19;98330.19;;;8.89;75.97
62789;BME280;66401;42.016;21.454;2023-03-04T08:42:44;98335.63;;;8.95;76.37
62789;BME280;66401;42.016;21.454;2023-03-04T08:45:10;98336.38;;;8.88;75.82
62789;BME280;66401;42.016;21.454;2023-03-04T08:47:36;98346.41;;;8.92;75.94
62789;BME280;66401;42.016;21.454;2023-03-04T08:50:04;98345.50;;;8.84;76.11
62789;BME280;66401;42.016;21.454;2023-03-04T08:52:29;98343.19;;;8.89;76.29
62789;BME280;66401;42.016;21.454;2023-03-04T08:54:56;98334.19;;;8.77;77.04
62789;BME280;66401;42.016;21.454;2023-03-04T08:57:21;98346.63;;;8.67;77.87
62789;BME280;66401;42.016;21.454;2023-03-04T08:59:47;98349.16;;;8.75;77.24
62789;BME280;66401;42.016;21.454;2023-03-04T09:02:13;98344.03;;;8.67;77.63
62789;BME280;66401;42.016;21.454;2023-03-04T09:04:38;98328.81;;;8.64;76.57
62789;BME280;66401;42.016;21.454;2023-03-04T09:07:04;98337.72;;;8.70;76.88
62789;BME280;66401;42.016;21.454;2023-03-04T09:09:30;98344.03;;;8.67;76.14
62789;BME280;66401;42.016;21.454;2023-03-04T09:11:55;98342.16;;;8.76;77.29
62789;BME280;66401;42.016;21.454;2023-03-04T09:14:21;98337.97;;;8.89;75.96
62789;BME280;66401;42.016;21.454;2023-03-04T09:16:46;98340.84;;;8.95;74.87
62789;BME280;66401;42.016;21.454;2023-03-04T09:19:12;98344.06;;;8.97;75.17
62789;BME280;66401;42.016;21.454;2023-03-04T09:21:37;98330.91;;;8.98;75.71
62789;BME280;66401;42.016;21.454;2023-03-04T09:24:03;98338.53;;;9.00;74.26
62789;BME280;66401;42.016;21.454;2023-03-04T09:26:29;98325.25;;;9.09;74.60
62789;BME280;66401;42.016;21.454;2023-03-04T09:28:57;98327.84;;;9.09;74.83
62789;BME280;66401;42.016;21.454;2023-03-04T09:31:24;98329.91;;;9.14;74.66
62789;BME280;66401;42.016;21.454;2023-03-04T09:33:51;98325.97;;;9.18;75.68
62789;BME280;66401;42.016;21.454;2023-03-04T09:36:16;98326.84;;;9.25;74.76
62789;BME280;66401;42.016;21.454;2023-03-04T09:38:42;98323.19;;;9.20;75.01
62789;BME280;66401;42.016;21.454;2023-03-04T09:41:13;98324.69;;;9.14;74.45
62789;BME280;66401;42.016;21.454;2023-03-04T09:43:40;98320.03;;;9.24;73.81
62789;BME280;66401;42.016;21.454;2023-03-04T09:46:11;98312.88;;;9.11;76.16
62789;BME280;66401;42.016;21.454;2023-03-04T09:48:56;98325.06;;;9.11;74.70
62789;BME280;66401;42.016;21.454;2023-03-04T09:51:40;98321.22;;;9.07;76.24
62789;BME280;66401;42.016;21.454;2023-03-04T09:54:39;98325.63;;;8.92;76.12
62789;BME280;66401;42.016;21.454;2023-03-04T10:02:46;98316.47;;;8.66;77.60
62789;BME280;66401;42.016;21.454;2023-03-04T10:05:20;98317.28;;;8.67;77.30
62789;BME280;66401;42.016;21.454;2023-03-04T10:07:58;98314.78;;;8.73;77.46
62789;BME280;66401;42.016;21.454;2023-03-04T10:10:32;98310.66;;;8.79;77.62
62789;BME280;66401;42.016;21.454;2023-03-04T10:13:00;98306.28;;;8.79;76.61
62789;BME280;66401;42.016;21.454;2023-03-04T10:15:37;98323.66;;;8.79;76.97
62789;BME280;66401;42.016;21.454;2023-03-04T10:18:20;98321.13;;;8.85;77.29
62789;BME280;66401;42.016;21.454;2023-03-04T10:23:18;98305.00;;;8.75;77.69
62789;BME280;66401;42.016;21.454;2023-03-04T10:25:45;98300.72;;;8.82;77.10
62789;BME280;66401;42.016;21.454;2023-03-04T10:28:17;98296.06;;;8.93;76.32
62789;BME280;66401;42.016;21.454;2023-03-04T10:31:00;98275.13;;;8.79;77.16
62789;BME280;66401;42.016;21.454;2023-03-04T10:33:29;98274.19;;;8.87;76.56
62789;BME280;66401;42.016;21.454;2023-03-04T10:36:01;98281.81;;;9.03;76.40
62789;BME280;66401;42.016;21.454;2023-03-04T10:38:34;98270.59;;;9.03;76.81
62789;BME280;66401;42.016;21.454;2023-03-04T10:41:00;98278.22;;;9.04;76.32
62789;BME280;66401;42.016;21.454;2023-03-04T10:43:26;98270.16;;;8.99;76.34
62789;BME280;66401;42.016;21.454;2023-03-04T10:45:58;98270.34;;;8.83;76.97
62789;BME280;66401;42.016;21.454;2023-03-04T10:48:30;98270.34;;;8.83;77.69
62789;BME280;66401;42.016;21.454;2023-03-04T10:53:39;98266.84;;;9.05;74.73
62789;BME280;66401;42.016;21.454;2023-03-04T10:56:31;98258.53;;;8.95;76.19
62789;BME280;66401;42.016;21.454;2023-03-04T11:04:38;98248.22;;;9.02;76.68
62789;BME280;66401;42.016;21.454;2023-03-04T11:07:14;98245.25;;;9.05;76.61
62789;BME280;66401;42.016;21.454;2023-03-04T11:09:39;98239.06;;;9.06;76.06
62789;BME280;66401;42.016;21.454;2023-03-04T11:12:13;98240.41;;;9.02;76.27
62789;BME280;66401;42.016;21.454;2023-03-04T11:19:44;98227.22;;;9.18;74.77
62789;BME280;66401;42.016;21.454;2023-03-04T11:22:14;98219.16;;;9.13;74.64
62789;BME280;66401;42.016;21.454;2023-03-04T11:24:42;98220.63;;;9.01;75.37
62789;BME280;66401;42.016;21.454;2023-03-04T11:27:15;98189.00;;;8.97;74.94
62789;BME280;66401;42.016;21.454;2023-03-04T11:29:48;98210.88;;;9.24;74.81
62789;BME280;66401;42.016;21.454;2023-03-04T11:32:27;98206.13;;;9.28;75.24
62789;BME280;66401;42.016;21.454;2023-03-04T11:35:00;98210.16;;;9.30;74.48
62789;BME280;66401;42.016;21.454;2023-03-04T11:37:59;98205.03;;;9.37;74.73
62789;BME280;66401;42.016;21.454;2023-03-04T11:40:40;98194.00;;;9.35;75.97
62789;BME280;66401;42.016;21.454;2023-03-04T11:43:12;98200.97;;;9.34;74.24
62789;BME280;66401;42.016;21.454;2023-03-04T11:48:35;98204.56;;;9.33;75.85
62789;BME280;66401;42.016;21.454;2023-03-04T11:56:49;98189.16;;;9.53;73.82
62789;BME280;66401;42.016;21.454;2023-03-04T11:59:55;98187.63;;;9.59;72.74
62789;BME280;66401;42.016;21.454;2023-03-04T12:02:29;98188.03;;;9.62;73.42
62789;BME280;66401;42.016;21.454;2023-03-04T12:13:21;98179.13;;;9.99;71.77
62789;BME280;66401;42.016;21.454;2023-03-04T12:19:26;98169.03;;;10.18;70.21
62789;BME280;66401;42.016;21.454;2023-03-04T12:24:49;98159.50;;;10.25;69.95
62789;BME280;66401;42.016;21.454;2023-03-04T12:30:43;98153.50;;;10.31;69.79
62789;BME280;66401;42.016;21.454;2023-03-04T12:41:24;98137.53;;;10.06;67.87
62789;BME280;66401;42.016;21.454;2023-03-04T12:44:13;98137.09;;;10.02;68.02
62789;BME280;66401;42.016;21.454;2023-03-04T12:52:45;98121.19;;;9.84;68.07
62789;BME280;66401;42.016;21.454;2023-03-04T12:55:07;98121.97;;;9.78;68.87
62789;BME280;66401;42.016;21.454;2023-03-04T12:57:35;98114.69;;;9.67;68.29
62789;BME280;66401;42.016;21.454;2023-03-04T13:00:19;98108.84;;;9.65;68.14
62789;BME280;66401;42.016;21.454;2023-03-04T13:10:37;98104.63;;;9.64;69.83
62789;BME280;66401;42.016;21.454;2023-03-04T13:13:03;98111.44;;;9.65;69.85
62789;BME280;66401;42.016;21.454;2023-03-04T13:15:36;98106.81;;;9.60;68.58
62789;BME280;66401;42.016;21.454;2023-03-04T13:18:30;98104.81;;;9.56;67.52
62789;BME280;66401;42.016;21.454;2023-03-04T13:21:27;98102.22;;;9.62;68.81
62789;BME280;66401;42.016;21.454;2023-03-04T13:23:54;98095.09;;;9.71;69.05
62789;BME280;66401;42.016;21.454;2023-03-04T13:34:51;98093.41;;;9.57;68.69
62789;BME280;66401;42.016;21.454;2023-03-04T13:37:29;98089.56;;;9.53;69.60
62789;BME280;66401;42.016;21.454;2023-03-04T13:42:49;98091.59;;;9.57;70.03
62789;BME280;66401;42.016;21.454;2023-03-04T13:45:33;98094.41;;;9.56;69.93
62789;BME280;66401;42.016;21.454;2023-03-04T13:47:59;98090.88;;;9.70;69.13
62789;BME280;66401;42.016;21.454;2023-03-04T13:50:29;98087.09;;;9.72;68.43
62789;BME280;66401;42.016;21.454;2023-03-04T13:58:43;98082.13;;;9.78;69.20
62789;BME280;66401;42.016;21.454;2023-03-04T14:01:29;98088.16;;;9.78;68.71
62789;BME280;66401;42.016;21.454;2023-03-04T14:03:57;98080.47;;;9.70;69.39
62789;BME280;66401;42.016;21.454;2023-03-04T14:06:28;98070.69;;;9.72;68.16
62789;BME280;66401;42.016;21.454;2023-03-04T14:08:55;98070.88;;;9.70;68.48
62789;BME280;66401;42.016;21.454;2023-03-04T14:11:35;98070.28;;;9.68;70.33
62789;BME280;66401;42.016;21.454;2023-03-04T14:14:29;98071.69;;;9.71;68.67
62789;BME280;66401;42.016;21.454;2023-03-04T14:17:04;98043.63;;;9.60;69.80
62789;BME280;66401;42.016;21.454;2023-03-04T14:19:56;98058.53;;;9.79;69.03
62789;BME280;66401;42.016;21.454;2023-03-04T14:22:24;98061.59;;;9.89;68.02
62789;BME280;66401;42.016;21.454;2023-03-04T14:27:46;98047.19;;;9.93;69.12
62789;BME280;66401;42.016;21.454;2023-03-04T14:30:26;98042.84;;;10.00;67.83
62789;BME280;66401;42.016;21.454;2023-03-04T14:32:53;98057.88;;;10.12;66.81
62789;BME280;66401;42.016;21.454;2023-03-04T14:35:23;98053.63;;;9.97;66.07
62789;BME280;66401;42.016;21.454;2023-03-04T14:38:05;98052.84;;;9.97;66.53